sensor_id;sensor_type;location;lat;lon;timestamp;temperature;humidity
240;DHT22;104;53.590;10.004;2022-11-02T00:00:46;12.30;96.80
240;DHT22;104;53.590;10.004;2022-11-02T00:05:42;12.30;96.80
240;DHT22;104;53.590;10.004;2022-11-02T00:10:36;12.30;96.80
240;DHT22;104;53.590;10.004;2022-11-02T00:13:04;12.30;96.80
240;DHT22;104;53.590;10.004;2022-11-02T00:15:33;12.30;96.80
240;DHT22;104;53.590;10.004;2022-11-02T00:18:02;12.30;96.80
240;DHT22;104;53.590;10.004;2022-11-02T00:20:31;12.30;96.80
240;DHT22;104;53.590;10.004;2022-11-02T00:23:00;12.30;96.80
240;DHT22;104;53.590;10.004;2022-11-02T00:25:29;12.30;96.80
240;DHT22;104;53.590;10.004;2022-11-02T00:27:56;12.30;96.80
240;DHT22;104;53.590;10.004;2022-11-02T00:32:51;12.30;96.80
240;DHT22;104;53.590;10.004;2022-11-02T00:37:45;12.20;96.80
240;DHT22;104;53.590;10.004;2022-11-02T00:40:14;12.20;96.80
240;DHT22;104;53.590;10.004;2022-11-02T00:50:05;12.20;96.80
240;DHT22;104;53.590;10.004;2022-11-02T00:52:32;12.10;96.80
240;DHT22;104;53.590;10.004;2022-11-02T00:55:00;12.20;96.80
240;DHT22;104;53.590;10.004;2022-11-02T00:59:55;12.20;96.80
240;DHT22;104;53.590;10.004;2022-11-02T01:04:50;12.20;96.80
240;DHT22;104;53.590;10.004;2022-11-02T01:07:17;12.20;96.80
240;DHT22;104;53.590;10.004;2022-11-02T01:09:44;12.10;96.80
240;DHT22;104;53.590;10.004;2022-11-02T01:14:40;12.00;96.80
240;DHT22;104;53.590;10.004;2022-11-02T01:17:07;12.00;96.80
240;DHT22;104;53.590;10.004;2022-11-02T01:24:29;12.00;96.80
240;DHT22;104;53.590;10.004;2022-11-02T01:29:23;11.90;96.80
240;DHT22;104;53.590;10.004;2022-11-02T01:34:19;12.00;96.80
240;DHT22;104;53.590;10.004;2022-11-02T01:36:47;12.00;96.80
240;DHT22;104;53.590;10.004;2022-11-02T01:39:15;12.00;96.80
240;DHT22;104;53.590;10.004;2022-11-02T01:41:42;12.10;96.80
240;DHT22;104;53.590;10.004;2022-11-02T01:44:27;12.10;96.80
240;DHT22;104;53.590;10.004;2022-11-02T01:46:59;12.00;96.80
240;DHT22;104;53.590;10.004;2022-11-02T01:49:29;12.00;96.80
240;DHT22;104;53.590;10.004;2022-11-02T01:52:01;12.00;96.80
240;DHT22;104;53.590;10.004;2022-11-02T01:54:33;12.00;96.80
240;DHT22;104;53.590;10.004;2022-11-02T01:57:04;12.00;96.80
240;DHT22;104;53.590;10.004;2022-11-02T01:59:35;12.00;96.80
240;DHT22;104;53.590;10.004;2022-11-02T02:02:12;12.00;96.80
240;DHT22;104;53.590;10.004;2022-11-02T02:07:11;12.00;96.80
240;DHT22;104;53.590;10.004;2022-11-02T02:47:38;11.80;96.80
240;DHT22;104;53.590;10.004;2022-11-02T02:52:38;11.80;96.80
240;DHT22;104;53.590;10.004;2022-11-02T03:00:14;11.80;96.80
240;DHT22;104;53.590;10.004;2022-11-02T03:02:44;11.90;96.80
240;DHT22;104;53.590;10.004;2022-11-02T03:05:27;11.80;96.80
240;DHT22;104;53.590;10.004;2022-11-02T03:07:58;11.70;96.80
240;DHT22;104;53.590;10.004;2022-11-02T03:13:08;11.70;96.80
240;DHT22;104;53.590;10.004;2022-11-02T03:15:40;11.60;96.80
240;DHT22;104;53.590;10.004;2022-11-02T03:23:19;11.60;96.80
240;DHT22;104;53.590;10.004;2022-11-02T03:25:54;11.70;96.80
240;DHT22;104;53.590;10.004;2022-11-02T03:31:02;11.70;96.80
240;DHT22;104;53.590;10.004;2022-11-02T03:33:50;11.60;96.80
240;DHT22;104;53.590;10.004;2022-11-02T03:36:24;11.60;96.80
240;DHT22;104;53.590;10.004;2022-11-02T03:41:27;11.60;96.80
240;DHT22;104;53.590;10.004;2022-11-02T03:44:01;11.70;96.80
240;DHT22;104;53.590;10.004;2022-11-02T03:46:33;11.70;96.80
240;DHT22;104;53.590;10.004;2022-11-02T03:49:04;11.60;96.80
240;DHT22;104;53.590;10.004;2022-11-02T03:51:34;11.70;96.80
240;DHT22;104;53.590;10.004;2022-11-02T03:54:07;11.60;96.80
240;DHT22;104;53.590;10.004;2022-11-02T03:56:41;11.60;96.80
240;DHT22;104;53.590;10.004;2022-11-02T04:01:42;11.60;96.80
240;DHT22;104;53.590;10.004;2022-11-02T04:04:10;11.60;96.80
240;DHT22;104;53.590;10.004;2022-11-02T04:06:38;11.60;96.80
240;DHT22;104;53.590;10.004;2022-11-02T04:09:08;11.60;96.80
240;DHT22;104;53.590;10.004;2022-11-02T04:11:37;11.60;96.80
240;DHT22;104;53.590;10.004;2022-11-02T04:14:21;11.60;96.80
240;DHT22;104;53.590;10.004;2022-11-02T04:19:53;11.60;96.80
240;DHT22;104;53.590;10.004;2022-11-02T04:25:11;11.60;96.80
240;DHT22;104;53.590;10.004;2022-11-02T04:27:44;11.60;96.80
240;DHT22;104;53.590;10.004;2022-11-02T04:32:44;11.60;96.80
240;DHT22;104;53.590;10.004;2022-11-02T04:35:30;11.60;96.80
240;DHT22;104;53.590;10.004;2022-11-02T04:40:43;11.50;96.80
240;DHT22;104;53.590;10.004;2022-11-02T04:43:10;11.50;96.80
240;DHT22;104;53.590;10.004;2022-11-02T04:55:57;11.50;96.80
240;DHT22;104;53.590;10.004;2022-11-02T05:08:14;11.80;96.80
240;DHT22;104;53.590;10.004;2022-11-02T05:20:34;11.70;96.80
240;DHT22;104;53.590;10.004;2022-11-02T05:23:01;11.70;96.80
240;DHT22;104;53.590;10.004;2022-11-02T05:25:30;11.70;96.80
240;DHT22;104;53.590;10.004;2022-11-02T08:06:35;12.70;96.80
240;DHT22;104;53.590;10.004;2022-11-02T08:24:06;12.70;96.80
240;DHT22;104;53.590;10.004;2022-11-02T08:39:43;13.10;96.80
240;DHT22;104;53.590;10.004;2022-11-02T09:48:13;15.50;90.30
240;DHT22;104;53.590;10.004;2022-11-02T09:50:47;15.70;88.80
240;DHT22;104;53.590;10.004;2022-11-02T09:53:19;15.80;87.80
240;DHT22;104;53.590;10.004;2022-11-02T09:55:50;16.00;88.10
240;DHT22;104;53.590;10.004;2022-11-02T09:58:22;16.00;87.80
240;DHT22;104;53.590;10.004;2022-11-02T10:00:54;16.00;87.60
240;DHT22;104;53.590;10.004;2022-11-02T10:33:59;17.90;78.50
240;DHT22;104;53.590;10.004;2022-11-02T10:36:39;17.80;78.70
240;DHT22;104;53.590;10.004;2022-11-02T10:39:18;17.90;76.60
240;DHT22;104;53.590;10.004;2022-11-02T10:41:57;18.00;76.40
240;DHT22;104;53.590;10.004;2022-11-02T10:44:41;18.30;76.50
240;DHT22;104;53.590;10.004;2022-11-02T10:47:14;18.60;75.60
240;DHT22;104;53.590;10.004;2022-11-02T10:50:22;18.70;74.10
240;DHT22;104;53.590;10.004;2022-11-02T10:52:59;18.60;73.90
240;DHT22;104;53.590;10.004;2022-11-02T10:55:31;17.50;73.90
240;DHT22;104;53.590;10.004;2022-11-02T10:58:03;17.10;75.50
240;DHT22;104;53.590;10.004;2022-11-02T11:00:34;17.00;76.50
240;DHT22;104;53.590;10.004;2022-11-02T11:03:09;17.00;76.70
240;DHT22;104;53.590;10.004;2022-11-02T11:05:54;17.00;77.00
240;DHT22;104;53.590;10.004;2022-11-02T11:08:35;16.80;78.50
240;DHT22;104;53.590;10.004;2022-11-02T11:11:20;16.80;78.90
240;DHT22;104;53.590;10.004;2022-11-02T11:13:54;16.80;78.70
240;DHT22;104;53.590;10.004;2022-11-02T11:16:38;16.70;78.80
240;DHT22;104;53.590;10.004;2022-11-02T11:21:50;16.40;80.20
240;DHT22;104;53.590;10.004;2022-11-02T11:24:22;16.20;80.80
240;DHT22;104;53.590;10.004;2022-11-02T11:27:00;15.80;82.20
240;DHT22;104;53.590;10.004;2022-11-02T11:29:30;15.80;82.70
240;DHT22;104;53.590;10.004;2022-11-02T11:31:58;15.80;82.90
240;DHT22;104;53.590;10.004;2022-11-02T11:34:27;15.60;83.60
240;DHT22;104;53.590;10.004;2022-11-02T11:37:05;15.80;83.70
240;DHT22;104;53.590;10.004;2022-11-02T11:39:35;15.80;83.20
240;DHT22;104;53.590;10.004;2022-11-02T11:42:04;15.70;83.40
240;DHT22;104;53.590;10.004;2022-11-02T11:44:33;15.70;83.40
240;DHT22;104;53.590;10.004;2022-11-02T11:47:00;15.80;82.80
240;DHT22;104;53.590;10.004;2022-11-02T11:49:31;16.30;81.60
240;DHT22;104;53.590;10.004;2022-11-02T11:51:59;16.40;81.10
240;DHT22;104;53.590;10.004;2022-11-02T11:54:30;16.40;81.20
240;DHT22;104;53.590;10.004;2022-11-02T11:56:58;16.40;81.40
240;DHT22;104;53.590;10.004;2022-11-02T11:59:31;16.50;81.00
240;DHT22;104;53.590;10.004;2022-11-02T12:02:21;16.70;80.50
240;DHT22;104;53.590;10.004;2022-11-02T12:04:49;16.80;80.40
240;DHT22;104;53.590;10.004;2022-11-02T12:07:30;16.90;80.30
240;DHT22;104;53.590;10.004;2022-11-02T12:10:08;17.00;79.10
240;DHT22;104;53.590;10.004;2022-11-02T12:12:59;17.10;78.70
240;DHT22;104;53.590;10.004;2022-11-02T12:15:47;17.20;78.20
240;DHT22;104;53.590;10.004;2022-11-02T12:18:35;17.10;78.20
240;DHT22;104;53.590;10.004;2022-11-02T12:21:23;17.10;78.60
240;DHT22;104;53.590;10.004;2022-11-02T12:24:13;17.20;77.80
240;DHT22;104;53.590;10.004;2022-11-02T12:26:55;17.40;76.60
240;DHT22;104;53.590;10.004;2022-11-02T12:29:53;17.40;76.20
240;DHT22;104;53.590;10.004;2022-11-02T12:35:23;17.20;76.90
240;DHT22;104;53.590;10.004;2022-11-02T12:38:10;17.30;76.70
240;DHT22;104;53.590;10.004;2022-11-02T12:43:34;17.10;76.20
240;DHT22;104;53.590;10.004;2022-11-02T12:46:09;17.00;77.10
240;DHT22;104;53.590;10.004;2022-11-02T12:48:46;17.00;77.70
240;DHT22;104;53.590;10.004;2022-11-02T12:53:56;16.50;78.90
240;DHT22;104;53.590;10.004;2022-11-02T12:56:27;16.50;79.30
240;DHT22;104;53.590;10.004;2022-11-02T12:59:11;16.30;77.00
240;DHT22;104;53.590;10.004;2022-11-02T13:01:55;16.00;77.90
240;DHT22;104;53.590;10.004;2022-11-02T13:04:31;15.90;78.60
240;DHT22;104;53.590;10.004;2022-11-02T13:07:11;15.90;78.90
240;DHT22;104;53.590;10.004;2022-11-02T13:09:45;16.00;77.90
240;DHT22;104;53.590;10.004;2022-11-02T13:12:18;16.00;77.80
240;DHT22;104;53.590;10.004;2022-11-02T13:14:55;15.70;77.50
240;DHT22;104;53.590;10.004;2022-11-02T13:17:29;15.70;77.60
240;DHT22;104;53.590;10.004;2022-11-02T13:20:08;15.60;78.20
240;DHT22;104;53.590;10.004;2022-11-02T13:22:40;15.50;78.90
240;DHT22;104;53.590;10.004;2022-11-02T13:25:15;15.50;78.80
240;DHT22;104;53.590;10.004;2022-11-02T13:27:49;15.50;78.60
240;DHT22;104;53.590;10.004;2022-11-02T13:32:55;15.40;79.40
240;DHT22;104;53.590;10.004;2022-11-02T13:35:28;15.40;79.70
240;DHT22;104;53.590;10.004;2022-11-02T13:38:00;15.50;79.90
240;DHT22;104;53.590;10.004;2022-11-02T13:40:31;15.70;79.60
240;DHT22;104;53.590;10.004;2022-11-02T13:49:14;15.80;77.90
240;DHT22;104;53.590;10.004;2022-11-02T13:51:44;15.70;78.10
240;DHT22;104;53.590;10.004;2022-11-02T13:54:19;15.60;78.30
240;DHT22;104;53.590;10.004;2022-11-02T13:59:28;15.70;77.70
240;DHT22;104;53.590;10.004;2022-11-02T14:02:00;15.70;77.50
240;DHT22;104;53.590;10.004;2022-11-02T14:04:37;15.60;77.70
240;DHT22;104;53.590;10.004;2022-11-02T14:07:08;15.70;77.30
240;DHT22;104;53.590;10.004;2022-11-02T14:09:46;16.10;75.80
240;DHT22;104;53.590;10.004;2022-11-02T14:12:41;16.10;75.20
240;DHT22;104;53.590;10.004;2022-11-02T14:20:47;15.90;75.60
240;DHT22;104;53.590;10.004;2022-11-02T14:23:38;15.70;76.10
240;DHT22;104;53.590;10.004;2022-11-02T14:26:30;15.60;76.80
240;DHT22;104;53.590;10.004;2022-11-02T14:29:04;15.50;76.70
240;DHT22;104;53.590;10.004;2022-11-02T14:32:04;15.40;76.90
240;DHT22;104;53.590;10.004;2022-11-02T14:34:46;15.40;77.00
240;DHT22;104;53.590;10.004;2022-11-02T14:37:31;15.20;77.80
240;DHT22;104;53.590;10.004;2022-11-02T14:40:06;15.20;77.90
240;DHT22;104;53.590;10.004;2022-11-02T14:42:58;15.20;78.10
240;DHT22;104;53.590;10.004;2022-11-02T14:45:43;15.10;78.30
240;DHT22;104;53.590;10.004;2022-11-02T14:48:17;14.90;78.90
240;DHT22;104;53.590;10.004;2022-11-02T14:51:02;14.80;79.70
240;DHT22;104;53.590;10.004;2022-11-02T14:53:35;14.80;79.70
240;DHT22;104;53.590;10.004;2022-11-02T14:56:05;14.70;79.80
240;DHT22;104;53.590;10.004;2022-11-02T14:58:37;14.60;80.00
240;DHT22;104;53.590;10.004;2022-11-02T15:01:12;14.60;80.00
240;DHT22;104;53.590;10.004;2022-11-02T15:03:42;14.50;80.80
240;DHT22;104;53.590;10.004;2022-11-02T15:09:10;14.40;80.80
240;DHT22;104;53.590;10.004;2022-11-02T15:14:53;14.10;82.00
240;DHT22;104;53.590;10.004;2022-11-02T15:20:32;13.80;83.40
240;DHT22;104;53.590;10.004;2022-11-02T15:23:14;13.80;83.40
240;DHT22;104;53.590;10.004;2022-11-02T15:25:48;13.70;84.20
240;DHT22;104;53.590;10.004;2022-11-02T15:28:19;13.70;84.60
240;DHT22;104;53.590;10.004;2022-11-02T15:30:49;13.60;84.80
240;DHT22;104;53.590;10.004;2022-11-02T15:33:24;13.50;85.40
240;DHT22;104;53.590;10.004;2022-11-02T15:35:54;13.50;85.80
240;DHT22;104;53.590;10.004;2022-11-02T15:38:27;13.50;86.40
240;DHT22;104;53.590;10.004;2022-11-02T15:41:04;13.50;86.60
240;DHT22;104;53.590;10.004;2022-11-02T15:46:43;13.40;87.20
240;DHT22;104;53.590;10.004;2022-11-02T15:49:27;13.30;86.80
240;DHT22;104;53.590;10.004;2022-11-02T15:52:02;13.30;86.40
240;DHT22;104;53.590;10.004;2022-11-02T15:54:46;13.20;86.50
240;DHT22;104;53.590;10.004;2022-11-02T15:57:23;13.20;86.70
240;DHT22;104;53.590;10.004;2022-11-02T16:02:46;13.00;87.40
240;DHT22;104;53.590;10.004;2022-11-02T16:05:19;13.00;87.50
240;DHT22;104;53.590;10.004;2022-11-02T16:07:49;12.80;88.20
240;DHT22;104;53.590;10.004;2022-11-02T16:10:28;12.80;88.30
240;DHT22;104;53.590;10.004;2022-11-02T16:12:57;12.70;89.10
240;DHT22;104;53.590;10.004;2022-11-02T16:15:26;12.80;89.10
240;DHT22;104;53.590;10.004;2022-11-02T16:17:55;12.70;89.80
240;DHT22;104;53.590;10.004;2022-11-02T16:20:25;12.70;90.10
240;DHT22;104;53.590;10.004;2022-11-02T16:22:55;12.60;90.70
240;DHT22;104;53.590;10.004;2022-11-02T16:33:22;12.30;91.90
240;DHT22;104;53.590;10.004;2022-11-02T16:46:28;12.10;92.30
240;DHT22;104;53.590;10.004;2022-11-02T16:49:06;12.00;92.70
240;DHT22;104;53.590;10.004;2022-11-02T16:56:52;11.80;94.30
240;DHT22;104;53.590;10.004;2022-11-02T17:04:19;11.70;94.60
240;DHT22;104;53.590;10.004;2022-11-02T17:06:48;11.60;94.80
240;DHT22;104;53.590;10.004;2022-11-02T17:09:23;11.60;94.90
240;DHT22;104;53.590;10.004;2022-11-02T17:12:04;11.50;95.30
240;DHT22;104;53.590;10.004;2022-11-02T17:17:02;11.50;96.00
240;DHT22;104;53.590;10.004;2022-11-02T17:19:43;11.50;96.40
240;DHT22;104;53.590;10.004;2022-11-02T17:22:15;11.40;96.40
240;DHT22;104;53.590;10.004;2022-11-02T17:24:43;11.50;96.70
240;DHT22;104;53.590;10.004;2022-11-02T17:27:22;11.50;96.80
240;DHT22;104;53.590;10.004;2022-11-02T17:29:50;11.50;96.80
240;DHT22;104;53.590;10.004;2022-11-02T17:32:20;11.40;96.80
240;DHT22;104;53.590;10.004;2022-11-02T17:34:48;11.60;96.80
240;DHT22;104;53.590;10.004;2022-11-02T17:37:24;11.60;96.80
240;DHT22;104;53.590;10.004;2022-11-02T17:39:53;11.40;96.80
240;DHT22;104;53.590;10.004;2022-11-02T17:45:24;11.10;96.80
240;DHT22;104;53.590;10.004;2022-11-02T17:47:52;11.10;96.80
240;DHT22;104;53.590;10.004;2022-11-02T17:50:19;11.20;96.80
240;DHT22;104;53.590;10.004;2022-11-02T17:52:46;11.20;96.80
240;DHT22;104;53.590;10.004;2022-11-02T17:55:16;11.10;96.80
240;DHT22;104;53.590;10.004;2022-11-02T17:57:45;10.90;96.80
240;DHT22;104;53.590;10.004;2022-11-02T18:00:12;10.90;96.80
240;DHT22;104;53.590;10.004;2022-11-02T18:02:42;10.80;96.80
240;DHT22;104;53.590;10.004;2022-11-02T18:05:21;10.80;96.80
240;DHT22;104;53.590;10.004;2022-11-02T18:07:49;10.70;96.80
240;DHT22;104;53.590;10.004;2022-11-02T18:10:18;10.60;96.80
240;DHT22;104;53.590;10.004;2022-11-02T18:12:47;10.60;96.80
240;DHT22;104;53.590;10.004;2022-11-02T18:15:18;10.60;96.80
240;DHT22;104;53.590;10.004;2022-11-02T18:20:13;10.40;96.80
240;DHT22;104;53.590;10.004;2022-11-02T18:22:41;10.30;96.80
240;DHT22;104;53.590;10.004;2022-11-02T18:25:10;10.30;96.80
240;DHT22;104;53.590;10.004;2022-11-02T18:32:37;10.30;96.80
240;DHT22;104;53.590;10.004;2022-11-02T18:35:06;10.30;96.80
240;DHT22;104;53.590;10.004;2022-11-02T18:37:34;10.40;96.80
240;DHT22;104;53.590;10.004;2022-11-02T18:40:02;10.30;96.80
240;DHT22;104;53.590;10.004;2022-11-02T18:47:26;10.20;96.80
240;DHT22;104;53.590;10.004;2022-11-02T18:49:53;10.10;96.80
240;DHT22;104;53.590;10.004;2022-11-02T18:52:20;10.00;96.80
240;DHT22;104;53.590;10.004;2022-11-02T18:54:47;9.90;96.80
240;DHT22;104;53.590;10.004;2022-11-02T19:02:12;9.90;96.80
240;DHT22;104;53.590;10.004;2022-11-02T19:04:41;9.80;96.80
240;DHT22;104;53.590;10.004;2022-11-02T19:07:08;9.80;96.80
240;DHT22;104;53.590;10.004;2022-11-02T19:09:53;9.80;96.80
240;DHT22;104;53.590;10.004;2022-11-02T19:12:22;9.70;96.80
240;DHT22;104;53.590;10.004;2022-11-02T19:14:51;9.70;96.80
240;DHT22;104;53.590;10.004;2022-11-02T19:17:19;9.70;96.80
240;DHT22;104;53.590;10.004;2022-11-02T19:19:49;9.80;96.80
240;DHT22;104;53.590;10.004;2022-11-02T19:22:18;9.80;96.80
240;DHT22;104;53.590;10.004;2022-11-02T19:27:16;9.70;96.80
240;DHT22;104;53.590;10.004;2022-11-02T19:29:43;9.60;96.80
240;DHT22;104;53.590;10.004;2022-11-02T19:32:11;9.50;96.80
240;DHT22;104;53.590;10.004;2022-11-02T19:34:39;9.60;96.80
240;DHT22;104;53.590;10.004;2022-11-02T19:37:08;9.60;96.80
240;DHT22;104;53.590;10.004;2022-11-02T19:44:32;9.30;96.80
240;DHT22;104;53.590;10.004;2022-11-02T19:49:27;9.10;96.80
240;DHT22;104;53.590;10.004;2022-11-02T19:51:54;9.10;96.80
240;DHT22;104;53.590;10.004;2022-11-02T19:56:50;9.00;96.80
240;DHT22;104;53.590;10.004;2022-11-02T19:59:17;9.00;96.80
240;DHT22;104;53.590;10.004;2022-11-02T20:01:45;8.90;96.80
240;DHT22;104;53.590;10.004;2022-11-02T20:06:44;9.10;96.80
240;DHT22;104;53.590;10.004;2022-11-02T20:09:14;9.10;96.80
240;DHT22;104;53.590;10.004;2022-11-02T20:14:11;9.00;96.80
240;DHT22;104;53.590;10.004;2022-11-02T20:16:39;8.80;96.80
240;DHT22;104;53.590;10.004;2022-11-02T20:19:06;8.80;96.80
240;DHT22;104;53.590;10.004;2022-11-02T20:21:34;8.70;96.80
240;DHT22;104;53.590;10.004;2022-11-02T20:26:31;8.70;96.80
240;DHT22;104;53.590;10.004;2022-11-02T20:29:01;8.60;96.80
240;DHT22;104;53.590;10.004;2022-11-02T20:31:31;8.50;96.80
240;DHT22;104;53.590;10.004;2022-11-02T20:33:58;8.50;96.80
240;DHT22;104;53.590;10.004;2022-11-02T20:36:26;8.50;96.80
240;DHT22;104;53.590;10.004;2022-11-02T20:41:21;8.50;96.80
240;DHT22;104;53.590;10.004;2022-11-02T20:43:50;8.50;96.80
240;DHT22;104;53.590;10.004;2022-11-02T20:46:20;8.40;96.80
240;DHT22;104;53.590;10.004;2022-11-02T20:48:48;8.40;96.80
240;DHT22;104;53.590;10.004;2022-11-02T20:53:43;8.60;96.80
240;DHT22;104;53.590;10.004;2022-11-02T20:56:10;8.60;96.80
240;DHT22;104;53.590;10.004;2022-11-02T20:58:37;8.70;96.80
240;DHT22;104;53.590;10.004;2022-11-02T21:01:05;8.70;96.80
240;DHT22;104;53.590;10.004;2022-11-02T21:11:00;9.10;96.80
240;DHT22;104;53.590;10.004;2022-11-02T21:13:27;9.10;96.80
240;DHT22;104;53.590;10.004;2022-11-02T21:18:41;9.20;96.80
240;DHT22;104;53.590;10.004;2022-11-02T21:23:38;9.30;96.80
240;DHT22;104;53.590;10.004;2022-11-02T21:26:07;9.40;96.80
240;DHT22;104;53.590;10.004;2022-11-02T21:28:37;9.50;96.80
240;DHT22;104;53.590;10.004;2022-11-02T21:31:06;9.60;96.80
240;DHT22;104;53.590;10.004;2022-11-02T21:33:34;9.70;96.80
240;DHT22;104;53.590;10.004;2022-11-02T21:36:04;9.80;96.80
240;DHT22;104;53.590;10.004;2022-11-02T21:38:32;9.80;96.80
240;DHT22;104;53.590;10.004;2022-11-02T21:41:00;10.00;96.80
240;DHT22;104;53.590;10.004;2022-11-02T21:43:28;10.00;96.80
240;DHT22;104;53.590;10.004;2022-11-02T21:45:57;10.10;96.80
240;DHT22;104;53.590;10.004;2022-11-02T21:48:28;10.10;96.80
240;DHT22;104;53.590;10.004;2022-11-02T21:53:29;10.10;96.80
240;DHT22;104;53.590;10.004;2022-11-02T21:55:59;10.10;96.80
240;DHT22;104;53.590;10.004;2022-11-02T21:58:26;10.10;96.80
240;DHT22;104;53.590;10.004;2022-11-02T22:00:58;10.00;96.80
240;DHT22;104;53.590;10.004;2022-11-02T22:03:43;9.90;96.80
240;DHT22;104;53.590;10.004;2022-11-02T22:06:11;10.00;96.80
240;DHT22;104;53.590;10.004;2022-11-02T22:08:40;10.00;96.80
240;DHT22;104;53.590;10.004;2022-11-02T22:11:09;10.00;96.80
240;DHT22;104;53.590;10.004;2022-11-02T22:13:37;10.00;96.80
240;DHT22;104;53.590;10.004;2022-11-02T22:16:13;10.00;96.80
240;DHT22;104;53.590;10.004;2022-11-02T22:18:42;10.00;96.80
240;DHT22;104;53.590;10.004;2022-11-02T22:21:10;10.00;96.80
240;DHT22;104;53.590;10.004;2022-11-02T22:23:37;9.90;96.80
240;DHT22;104;53.590;10.004;2022-11-02T22:26:08;10.00;96.80
240;DHT22;104;53.590;10.004;2022-11-02T22:28:37;9.90;96.80
240;DHT22;104;53.590;10.004;2022-11-02T22:31:07;9.90;96.80
240;DHT22;104;53.590;10.004;2022-11-02T22:33:34;9.80;96.80
240;DHT22;104;53.590;10.004;2022-11-02T22:36:04;9.80;96.80
240;DHT22;104;53.590;10.004;2022-11-02T22:41:22;9.80;96.80
240;DHT22;104;53.590;10.004;2022-11-02T22:43:50;9.80;96.80
240;DHT22;104;53.590;10.004;2022-11-02T22:46:18;9.80;96.80
240;DHT22;104;53.590;10.004;2022-11-02T22:48:46;9.80;96.80
240;DHT22;104;53.590;10.004;2022-11-02T22:51:13;9.90;96.80
240;DHT22;104;53.590;10.004;2022-11-02T22:56:10;9.80;96.80
240;DHT22;104;53.590;10.004;2022-11-02T22:58:40;9.70;96.80
240;DHT22;104;53.590;10.004;2022-11-02T23:01:10;9.70;96.80
240;DHT22;104;53.590;10.004;2022-11-02T23:03:37;9.70;96.80
240;DHT22;104;53.590;10.004;2022-11-02T23:06:05;9.70;96.80
240;DHT22;104;53.590;10.004;2022-11-02T23:08:34;9.70;96.80
240;DHT22;104;53.590;10.004;2022-11-02T23:11:02;9.70;96.80
240;DHT22;104;53.590;10.004;2022-11-02T23:13:50;9.70;96.80
240;DHT22;104;53.590;10.004;2022-11-02T23:16:19;9.70;96.80
240;DHT22;104;53.590;10.004;2022-11-02T23:21:33;9.70;96.80
240;DHT22;104;53.590;10.004;2022-11-02T23:26:49;9.30;96.80
240;DHT22;104;53.590;10.004;2022-11-02T23:32:13;9.10;96.80
240;DHT22;104;53.590;10.004;2022-11-02T23:37:38;9.00;96.80
240;DHT22;104;53.590;10.004;2022-11-02T23:40:06;8.90;96.80
240;DHT22;104;53.590;10.004;2022-11-02T23:45:03;8.70;96.80
240;DHT22;104;53.590;10.004;2022-11-02T23:47:30;8.70;96.80
240;DHT22;104;53.590;10.004;2022-11-02T23:50:16;8.70;96.80
240;DHT22;104;53.590;10.004;2022-11-02T23:53:04;8.60;96.80
240;DHT22;104;53.590;10.004;2022-11-02T23:55:50;8.60;96.80
240;DHT22;104;53.590;10.004;2022-11-02T23:58:35;8.70;96.80
